createdAt,value
2023-11-30T00:02:50.307Z,8.47
2023-11-30T00:07:53.230Z,7.60
2023-11-30T00:12:55.361Z,11.80
2023-11-30T00:17:57.566Z,14.37
2023-11-30T00:22:59.744Z,10.90
2023-11-30T00:28:01.877Z,8.53
2023-11-30T00:33:04.519Z,18.80
2023-11-30T00:38:06.667Z,8.33
2023-11-30T00:43:09.238Z,11.20
2023-11-30T00:48:11.937Z,12.33
2023-11-30T00:53:14.108Z,10.10
2023-11-30T00:58:16.232Z,11.23
2023-11-30T01:03:18.463Z,7.73
2023-11-30T01:08:20.682Z,9.53
2023-11-30T01:13:22.837Z,14.90
2023-11-30T01:18:25.390Z,11.57
2023-11-30T01:23:27.629Z,12.10
2023-11-30T01:28:30.777Z,16.57
2023-11-30T01:33:32.958Z,16.30
2023-11-30T01:43:37.292Z,13.90
2023-11-30T01:48:39.489Z,18.50
2023-11-30T01:53:41.806Z,13.40
2023-11-30T01:58:44.151Z,14.00
2023-11-30T02:08:49.192Z,16.90
2023-11-30T02:13:51.459Z,14.43
2023-11-30T02:18:53.593Z,15.00
2023-11-30T02:23:55.981Z,12.23
2023-11-30T02:28:58.278Z,13.43
2023-11-30T02:34:00.421Z,11.30
2023-11-30T02:39:02.605Z,13.53
2023-11-30T02:44:04.921Z,13.70
2023-11-30T02:49:07.052Z,17.53
2023-11-30T02:54:10.032Z,18.23
2023-11-30T02:59:12.311Z,11.40
2023-11-30T03:04:14.721Z,14.00
2023-11-30T03:09:17.397Z,17.13
2023-11-30T03:14:19.601Z,17.57
2023-11-30T03:19:21.941Z,14.43
2023-11-30T03:24:24.811Z,14.27
2023-11-30T03:29:27.004Z,10.70
2023-11-30T03:34:29.119Z,15.80
2023-11-30T03:39:31.313Z,14.33
2023-11-30T03:44:33.509Z,16.43
2023-11-30T03:49:35.673Z,17.67
2023-11-30T03:54:38.055Z,16.10
2023-11-30T03:59:40.727Z,16.37
2023-11-30T04:04:43.554Z,16.03
2023-11-30T04:09:47.040Z,13.63
2023-11-30T04:14:49.160Z,14.30
2023-11-30T04:19:51.338Z,15.57
2023-11-30T04:24:53.521Z,14.77
2023-11-30T04:29:55.820Z,16.87
2023-11-30T04:34:59.136Z,14.63
2023-11-30T04:40:01.248Z,13.33
2023-11-30T04:45:03.874Z,12.50
2023-11-30T04:50:07.180Z,13.43
2023-11-30T04:55:09.746Z,16.27
2023-11-30T05:00:12.439Z,12.37
2023-11-30T05:05:14.617Z,16.00
2023-11-30T05:10:16.798Z,21.03
2023-11-30T05:15:19.107Z,13.63
2023-11-30T05:20:21.428Z,13.37
2023-11-30T05:25:23.565Z,12.73
2023-11-30T05:30:26.952Z,18.60
2023-11-30T05:35:29.118Z,17.30
2023-11-30T05:40:31.453Z,17.10
2023-11-30T05:45:33.614Z,15.20
2023-11-30T05:50:36.828Z,16.40
2023-11-30T05:55:38.954Z,18.13
2023-11-30T06:00:41.114Z,14.60
2023-11-30T06:05:43.303Z,18.60
2023-11-30T06:10:45.448Z,17.03
2023-11-30T06:15:47.774Z,16.20
2023-11-30T06:20:50.015Z,22.77
2023-11-30T06:25:52.185Z,22.73
2023-11-30T06:30:54.456Z,21.50
2023-11-30T06:35:56.608Z,21.37
2023-11-30T06:40:58.941Z,18.20
2023-11-30T06:46:01.148Z,19.83
2023-11-30T06:51:06.399Z,19.83
2023-11-30T06:56:11.984Z,20.77
2023-11-30T07:01:14.201Z,24.47
2023-11-30T07:06:16.404Z,19.67
2023-11-30T07:11:18.564Z,20.80
2023-11-30T07:16:20.737Z,17.63
2023-11-30T07:21:23.043Z,20.33
2023-11-30T07:26:25.161Z,20.87
2023-11-30T07:31:27.719Z,19.40
2023-11-30T07:36:29.959Z,33.23
2023-11-30T07:41:32.136Z,23.67
2023-11-30T07:46:35.484Z,15.23
2023-11-30T07:51:37.652Z,20.50
2023-11-30T07:56:39.799Z,21.20
2023-11-30T08:01:43.358Z,21.57
2023-11-30T08:06:46.867Z,21.17
2023-11-30T08:11:49.283Z,23.53
2023-11-30T08:16:51.405Z,19.30
2023-11-30T08:21:53.608Z,21.50
2023-11-30T08:26:55.888Z,26.10
2023-11-30T08:31:59.408Z,18.80
2023-11-30T08:37:01.842Z,18.17
2023-11-30T08:42:04.227Z,21.43
2023-11-30T08:47:06.568Z,20.10
2023-11-30T08:52:08.673Z,20.40
2023-11-30T08:57:13.549Z,18.53
2023-11-30T09:02:16.259Z,17.00
2023-11-30T09:07:18.996Z,19.43
2023-11-30T09:12:22.011Z,17.57
2023-11-30T09:17:24.844Z,17.20
2023-11-30T09:22:26.973Z,17.43
2023-11-30T09:27:29.135Z,19.43
2023-11-30T09:32:31.319Z,21.80
2023-11-30T09:37:33.595Z,19.60
2023-11-30T09:42:35.824Z,18.87
2023-11-30T09:47:38.043Z,16.70
2023-11-30T09:52:41.226Z,16.53
2023-11-30T09:57:43.475Z,21.80
2023-11-30T10:07:59.708Z,20.33
2023-11-30T10:13:01.938Z,18.30
2023-11-30T10:18:06.159Z,15.37
2023-11-30T10:23:13.233Z,18.83
2023-11-30T10:28:15.815Z,21.80
2023-11-30T10:33:21.897Z,14.15
2023-11-30T10:38:37.961Z,16.85
2023-11-30T10:43:44.770Z,14.43
2023-11-30T10:48:47.013Z,11.80
2023-11-30T10:54:09.362Z,24.13
2023-11-30T10:59:15.514Z,14.77
2023-11-30T11:04:17.937Z,19.30
2023-11-30T11:09:20.563Z,12.75
2023-11-30T11:19:35.337Z,17.08
2023-11-30T11:24:43.445Z,16.42
2023-11-30T11:29:46.727Z,16.77
2023-11-30T11:34:48.947Z,16.85
2023-11-30T11:39:52.423Z,17.70
2023-11-30T11:55:04.861Z,12.70
2023-11-30T12:00:11.251Z,11.85
2023-11-30T12:05:25.931Z,13.50
2023-11-30T12:15:45.985Z,9.80
2023-11-30T12:20:50.173Z,14.18
2023-11-30T12:25:54.076Z,14.30
2023-11-30T12:30:58.157Z,13.05
2023-11-30T12:46:05.235Z,14.05
2023-11-30T13:01:12.480Z,17.73
2023-11-30T13:11:16.942Z,16.23
2023-11-30T13:16:19.770Z,14.38
2023-11-30T13:21:22.546Z,19.50
2023-11-30T13:26:24.701Z,20.33
2023-11-30T13:36:29.251Z,15.65
2023-11-30T13:41:31.438Z,20.35
2023-11-30T13:46:33.680Z,19.52
2023-11-30T13:51:35.831Z,16.70
2023-11-30T13:56:39.253Z,16.08
2023-11-30T14:01:41.607Z,17.60
2023-11-30T14:06:44.300Z,22.80
2023-11-30T14:11:46.513Z,21.65
2023-11-30T14:16:48.934Z,17.60
2023-11-30T14:21:51.289Z,16.83
2023-11-30T14:26:53.014Z,21.52
2023-11-30T14:31:54.810Z,17.55
2023-11-30T14:36:56.572Z,17.60
2023-11-30T14:41:58.486Z,15.32
2023-11-30T14:47:00.371Z,22.35
2023-11-30T14:57:07.492Z,21.85
2023-11-30T15:02:10.321Z,21.38
2023-11-30T15:07:12.094Z,20.73
2023-11-30T15:12:13.782Z,20.03
2023-11-30T15:17:15.488Z,17.10
2023-11-30T15:22:17.178Z,24.50
2023-11-30T15:27:18.955Z,16.60
2023-11-30T15:32:20.636Z,29.98
2023-11-30T15:37:22.606Z,26.95
2023-11-30T15:42:25.596Z,31.65
2023-11-30T15:47:27.660Z,20.73
2023-11-30T16:02:33.256Z,21.70
2023-11-30T16:07:36.001Z,25.67
2023-11-30T16:12:38.378Z,27.47
2023-11-30T16:17:40.676Z,22.50
2023-11-30T16:22:43.008Z,22.87
2023-11-30T16:27:45.306Z,24.90
2023-11-30T16:32:47.589Z,22.63
2023-11-30T16:37:49.740Z,24.37
2023-11-30T16:42:51.881Z,25.67
2023-11-30T16:47:55.280Z,23.10
2023-11-30T16:52:58.817Z,23.63
2023-11-30T16:58:01.729Z,21.70
2023-11-30T17:03:04.595Z,26.07
2023-11-30T17:08:06.761Z,22.10
2023-11-30T17:13:09.093Z,23.43
2023-11-30T17:18:11.998Z,27.83
2023-11-30T17:23:14.170Z,27.83
2023-11-30T17:28:16.299Z,26.97
2023-11-30T17:33:18.773Z,23.70
2023-11-30T17:38:21.050Z,21.33
2023-11-30T17:43:23.258Z,23.07
2023-11-30T17:48:25.448Z,30.80
2023-11-30T17:53:27.583Z,21.97
2023-11-30T17:58:29.292Z,24.10
2023-11-30T18:03:31.011Z,27.73
2023-11-30T18:08:32.995Z,22.50
2023-11-30T18:13:34.688Z,27.33
2023-11-30T18:23:38.139Z,29.33
2023-11-30T18:28:40.559Z,32.93
2023-11-30T18:33:42.247Z,59.27
2023-11-30T18:38:50.411Z,107.73
2023-11-30T18:43:53.447Z,36.20
2023-11-30T18:48:55.145Z,35.73
2023-11-30T18:53:57.604Z,27.90
2023-11-30T19:04:02.151Z,27.80
2023-11-30T19:09:03.970Z,28.00
2023-11-30T19:14:05.775Z,25.27
2023-11-30T19:19:07.919Z,26.90
2023-11-30T19:24:12.287Z,28.63
2023-11-30T19:29:15.155Z,25.80
2023-11-30T19:34:17.033Z,29.77
2023-11-30T19:39:18.745Z,28.37
2023-11-30T19:44:20.710Z,26.40
2023-11-30T19:49:22.504Z,27.73
2023-11-30T19:54:24.328Z,29.83
2023-11-30T19:59:26.537Z,29.07
2023-11-30T20:04:28.709Z,25.57
2023-11-30T20:09:30.460Z,25.57
2023-11-30T20:14:32.112Z,30.60
2023-11-30T20:19:36.939Z,28.00
2023-11-30T20:24:38.625Z,27.03
2023-11-30T20:34:42.205Z,31.67
2023-11-30T20:44:47.690Z,31.80
2023-11-30T20:49:49.475Z,31.00
2023-11-30T20:59:53.287Z,27.67
2023-11-30T21:04:55.025Z,26.50
2023-11-30T21:09:57.242Z,29.97
2023-11-30T21:14:58.953Z,26.20
2023-11-30T21:20:01.328Z,38.70
2023-11-30T21:25:03.573Z,29.93
2023-11-30T21:30:06.081Z,30.23
2023-11-30T21:35:08.381Z,32.20
2023-11-30T21:40:10.942Z,26.83
2023-11-30T21:45:14.433Z,27.10
2023-11-30T21:50:19.478Z,29.47
2023-11-30T21:55:21.451Z,28.47
2023-11-30T22:00:23.272Z,30.67
2023-11-30T22:05:30.839Z,24.47
2023-11-30T22:10:37.918Z,26.37
2023-11-30T22:15:39.609Z,28.13
2023-11-30T22:25:56.214Z,28.27
2023-11-30T22:31:05.228Z,22.97
2023-11-30T22:36:07.840Z,29.40
2023-11-30T22:41:10.721Z,27.43
2023-11-30T22:46:19.418Z,27.10
2023-11-30T22:51:22.338Z,30.90
2023-11-30T22:56:26.258Z,29.60
2023-11-30T23:01:28.204Z,25.40
2023-11-30T23:06:30.084Z,32.27
2023-11-30T23:11:31.800Z,25.73
2023-11-30T23:16:33.666Z,26.50
2023-11-30T23:21:35.362Z,34.20
2023-11-30T23:26:37.355Z,24.90
2023-11-30T23:31:39.200Z,32.60
2023-11-30T23:36:40.932Z,26.03
2023-11-30T23:41:42.583Z,26.70
2023-11-30T23:46:44.320Z,32.03
2023-11-30T23:51:46.008Z,24.50
2023-11-30T23:56:47.996Z,34.70
